This is the latest recevied weather packets stored in our database for station/object N9BLE. If no packets are shown the sender has not sent any weather packets the latest 1 day(s).
| Time | Temp. | Humidity | Pressure | Rain* | Wind** | Luminosity | Snow |
|---|---|---|---|---|---|---|---|
| 1778114684 | 8.33° C | 47% | 1018.8 hPa | 0 mm | - | 7 W/m² | - |
| 1778114382 | 8.33° C | 45% | 1018.7 hPa | 0 mm | - | 9 W/m² | - |
| 1778114077 | 8.89° C | 44% | 1018.8 hPa | 0 mm | - | 12 W/m² | - |
| 1778113772 | 8.89° C | 45% | 1018.8 hPa | 0 mm | - | 15 W/m² | - |
| 1778113166 | 9.44° C | 43% | 1018.8 hPa | 0 mm | - | 19 W/m² | - |
| 1778112560 | 9.44° C | 42% | 1018.6 hPa | 0 mm | - | 25 W/m² | - |
| 1778107707 | 11.67° C | 41% | 1018.1 hPa | 0 mm | - | 129 W/m² | - |
| 1778107404 | 11.67° C | 41% | 1017.8 hPa | 0 mm | - | 145 W/m² | - |
| 1778106795 | 11.67° C | 40% | 1017.8 hPa | 0 mm | - | 141 W/m² | - |
| 1778106493 | 11.67° C | 39% | 1018 hPa | 0 mm | - | 131 W/m² | - |
| 1778105887 | 11.67° C | 40% | 1017.9 hPa | 0 mm | - | 197 W/m² | - |
| 1778104982 | 11.67° C | 39% | 1017.6 hPa | 0 mm | - | 189 W/m² | - |
| 1778104679 | 11.67° C | 39% | 1017.7 hPa | 0 mm | - | 134 W/m² | - |
| 1778103768 | 12.22° C | 38% | 1017.6 hPa | 0 mm | - | 109 W/m² | - |
| 1778103163 | 12.78° C | 39% | 1017.3 hPa | 0 mm | - | 260 W/m² | - |
| 1778101948 | 13.33° C | 38% | 1017.5 hPa | 0 mm | - | 179 W/m² | - |
| 1778100432 | 14.44° C | 38% | 1017.4 hPa | 0 mm | - | 350 W/m² | - |
| 1778100129 | 14.44° C | 39% | 1017.5 hPa | 0 mm | - | 666 W/m² | - |
| 1778099524 | 12.78° C | 41% | 1017.5 hPa | 0 mm | - | 668 W/m² | - |
| 1778098008 | 14.44° C | 36% | 1017.3 hPa | 0 mm | - | 275 W/m² | - |
| 1778096795 | 13.89° C | 38% | 1017.7 hPa | 0 mm | - | 784 W/m² | - |
| 1778096491 | 13.33° C | 41% | 1017.6 hPa | 0 mm | - | 739 W/m² | - |
| 1778096189 | 14.44° C | 37% | 1017.6 hPa | 0 mm | - | 769 W/m² | - |
| 1778095886 | 13.89° C | 39% | 1017.7 hPa | 0 mm | - | 476 W/m² | - |
| 1778093763 | 13.33° C | 36% | 1017.5 hPa | 0 mm | - | 448 W/m² | - |
* Rain latest hour (hover to see other rain measurements)
** Current wind speed in m/s (hover to see current wind gust speed)